createdAt,value
2017-06-06T00:00:10.373Z,0
2017-06-06T00:01:04.350Z,0
2017-06-06T00:01:58.485Z,0
2017-06-06T00:02:58.423Z,0
2017-06-06T00:03:47.467Z,0
2017-06-06T00:04:42.519Z,0
2017-06-06T00:05:31.566Z,0
2017-06-06T00:06:25.616Z,0
2017-06-06T00:07:14.625Z,0
2017-06-06T00:08:03.692Z,0
2017-06-06T00:08:57.705Z,0
2017-06-06T00:09:45.826Z,0
2017-06-06T00:10:40.815Z,0
2017-06-06T00:11:35.848Z,0
2017-06-06T00:12:30.009Z,0
2017-06-06T00:13:23.950Z,0
2017-06-06T00:14:18.962Z,0
2017-06-06T00:15:13.005Z,0
2017-06-06T00:16:13.041Z,0
2017-06-06T00:17:08.097Z,0
2017-06-06T00:18:08.150Z,0
2017-06-06T00:19:02.142Z,0
2017-06-06T00:20:02.215Z,0
2017-06-06T00:20:57.224Z,0
2017-06-06T00:21:52.241Z,0
2017-06-06T00:22:52.309Z,0
2017-06-06T00:23:47.418Z,0
2017-06-06T00:24:42.362Z,0
2017-06-06T00:25:43.397Z,0
2017-06-06T00:26:43.418Z,0
2017-06-06T00:27:37.457Z,0
2017-06-06T00:28:37.538Z,0
2017-06-06T00:29:26.202Z,0
2017-06-06T00:30:13.669Z,0
2017-06-06T00:31:07.926Z,0
2017-06-06T00:31:55.719Z,0
2017-06-06T00:32:43.732Z,0
2017-06-06T00:33:44.941Z,0
2017-06-06T00:34:39.839Z,0
2017-06-06T00:35:34.884Z,0
2017-06-06T00:36:29.934Z,0
2017-06-06T00:37:30.895Z,0
2017-06-06T00:38:19.949Z,0
2017-06-06T00:39:14.045Z,0
2017-06-06T00:40:15.024Z,0
2017-06-06T00:41:15.068Z,0
2017-06-06T00:42:15.082Z,0
2017-06-06T00:43:09.659Z,0
2017-06-06T00:44:09.132Z,0
2017-06-06T00:45:04.225Z,0
2017-06-06T00:45:59.461Z,0
2017-06-06T00:46:59.271Z,0
2017-06-06T00:47:54.322Z,0
2017-06-06T00:48:48.369Z,0
2017-06-06T00:49:48.431Z,0
2017-06-06T00:50:36.456Z,0
2017-06-06T00:51:30.474Z,0
2017-06-06T00:52:24.544Z,0
2017-06-06T00:53:18.545Z,0
2017-06-06T00:54:12.543Z,0
2017-06-06T00:55:12.633Z,0
2017-06-06T00:56:00.647Z,0
2017-06-06T00:57:00.739Z,0
2017-06-06T00:58:00.734Z,0
2017-06-06T00:58:54.762Z,0
2017-06-06T00:59:43.841Z,0
2017-06-06T01:00:32.866Z,0
2017-06-06T01:01:32.920Z,0
2017-06-06T01:02:33.063Z,0
2017-06-06T01:03:26.967Z,0
2017-06-06T01:04:21.035Z,0
2017-06-06T01:05:15.048Z,0
2017-06-06T01:06:10.045Z,0
2017-06-06T01:07:10.214Z,0
2017-06-06T01:08:05.169Z,0
2017-06-06T01:09:05.211Z,0
2017-06-06T01:09:59.232Z,0
2017-06-06T01:10:59.274Z,0
2017-06-06T01:11:54.326Z,0
2017-06-06T01:12:48.348Z,0
2017-06-06T01:13:43.943Z,0
2017-06-06T01:14:38.469Z,0
2017-06-06T01:15:27.428Z,0
2017-06-06T01:16:16.580Z,0
2017-06-06T01:17:04.521Z,0
2017-06-06T01:17:53.591Z,0
2017-06-06T01:18:42.121Z,0
2017-06-06T01:19:41.735Z,0
2017-06-06T01:20:41.733Z,0
2017-06-06T01:21:35.750Z,0
2017-06-06T01:22:35.749Z,0
2017-06-06T01:23:30.802Z,0
2017-06-06T01:24:24.810Z,0
2017-06-06T01:25:24.821Z,0
2017-06-06T01:26:24.905Z,0
2017-06-06T01:27:19.940Z,0
2017-06-06T01:28:14.945Z,0
2017-06-06T01:29:09.557Z,0
2017-06-06T01:30:04.063Z,0
2017-06-06T01:30:53.113Z,0
2017-06-06T01:31:48.153Z,0
2017-06-06T01:32:37.201Z,0
2017-06-06T01:33:37.240Z,0
2017-06-06T01:34:26.614Z,0
2017-06-06T01:35:20.322Z,0
2017-06-06T01:36:15.406Z,0
2017-06-06T01:37:04.387Z,0
2017-06-06T01:38:04.384Z,0
2017-06-06T01:38:59.459Z,0
2017-06-06T01:39:53.477Z,0
2017-06-06T01:40:53.505Z,0
2017-06-06T01:41:48.581Z,0
2017-06-06T01:42:43.611Z,0
2017-06-06T01:43:38.634Z,0
2017-06-06T01:44:39.640Z,0
2017-06-06T01:45:33.742Z,0
2017-06-06T01:46:27.737Z,0
2017-06-06T01:47:21.826Z,0
2017-06-06T01:48:21.838Z,0
2017-06-06T01:49:15.888Z,0
2017-06-06T01:50:09.930Z,0
2017-06-06T01:51:04.935Z,0
2017-06-06T01:51:59.138Z,0
2017-06-06T01:52:59.055Z,0
2017-06-06T01:53:54.115Z,0
2017-06-06T01:54:49.089Z,0
2017-06-06T01:55:50.109Z,0
2017-06-06T01:56:50.157Z,0
2017-06-06T01:57:50.155Z,0
2017-06-06T01:58:45.375Z,0
2017-06-06T01:59:39.256Z,0
2017-06-06T02:00:39.260Z,0
2017-06-06T02:01:34.313Z,0
2017-06-06T02:02:28.353Z,0
2017-06-06T02:03:23.469Z,0
2017-06-06T02:04:12.957Z,0
2017-06-06T02:05:13.445Z,0
2017-06-06T02:06:14.516Z,0
2017-06-06T02:07:03.532Z,0
2017-06-06T02:07:58.780Z,0
2017-06-06T02:08:59.103Z,0
2017-06-06T02:09:53.680Z,0
2017-06-06T02:10:48.658Z,0
2017-06-06T02:11:36.716Z,0
2017-06-06T02:12:30.742Z,0
2017-06-06T02:13:24.809Z,0
2017-06-06T02:14:24.847Z,0
2017-06-06T02:15:24.913Z,0
2017-06-06T02:16:19.979Z,0
2017-06-06T02:17:13.942Z,4
2017-06-06T02:18:14.006Z,4
2017-06-06T02:19:03.079Z,4
2017-06-06T02:19:52.047Z,0
2017-06-06T02:20:52.424Z,0
2017-06-06T02:21:46.144Z,0
2017-06-06T02:22:46.184Z,4
2017-06-06T02:23:41.279Z,4
2017-06-06T02:24:36.522Z,4
2017-06-06T02:25:24.544Z,0
2017-06-06T02:26:24.415Z,4
2017-06-06T02:27:12.771Z,4
2017-06-06T02:28:07.439Z,4
2017-06-06T02:29:01.873Z,4
2017-06-06T02:30:01.508Z,8
2017-06-06T02:30:50.501Z,4
2017-06-06T02:31:39.575Z,8
2017-06-06T02:32:34.581Z,4
2017-06-06T02:33:29.636Z,8
2017-06-06T02:34:30.684Z,8
2017-06-06T02:35:24.732Z,8
2017-06-06T02:36:24.773Z,12
2017-06-06T02:37:19.790Z,12
2017-06-06T02:38:13.862Z,12
2017-06-06T02:39:13.886Z,16
2017-06-06T02:40:13.911Z,12
2017-06-06T02:41:08.968Z,16
2017-06-06T02:42:02.938Z,20
2017-06-06T02:43:03.352Z,20
2017-06-06T02:44:03.264Z,20
2017-06-06T02:44:57.286Z,24
2017-06-06T02:45:58.288Z,28
2017-06-06T02:46:59.412Z,32
2017-06-06T02:47:53.162Z,36
2017-06-06T02:48:53.164Z,40
2017-06-06T02:49:48.230Z,44
2017-06-06T02:50:48.266Z,48
2017-06-06T02:51:42.306Z,52
2017-06-06T02:52:42.337Z,60
2017-06-06T02:53:36.380Z,72
2017-06-06T02:54:36.451Z,80
2017-06-06T02:55:31.429Z,88
2017-06-06T02:56:31.476Z,100
2017-06-06T02:57:20.507Z,116
2017-06-06T02:58:14.589Z,124
2017-06-06T02:59:14.570Z,144
2017-06-06T03:00:09.708Z,164
2017-06-06T03:01:03.652Z,184
2017-06-06T03:02:03.725Z,208
2017-06-06T03:02:52.777Z,228
2017-06-06T03:03:47.934Z,252
2017-06-06T03:04:48.869Z,276
2017-06-06T03:05:36.846Z,292
2017-06-06T03:06:30.944Z,312
2017-06-06T03:07:30.960Z,328
2017-06-06T03:08:25.995Z,340
2017-06-06T03:09:21.013Z,348
2017-06-06T03:10:15.472Z,356
2017-06-06T03:11:16.144Z,368
2017-06-06T03:12:11.542Z,384
2017-06-06T03:13:11.189Z,416
2017-06-06T03:14:11.599Z,456
2017-06-06T03:15:05.785Z,504
2017-06-06T03:16:05.640Z,556
2017-06-06T03:17:00.970Z,612
2017-06-06T03:17:55.775Z,656
2017-06-06T03:18:49.981Z,696
2017-06-06T03:19:49.950Z,732
2017-06-06T03:20:44.432Z,752
2017-06-06T03:21:40.015Z,776
2017-06-06T03:22:40.071Z,804
2017-06-06T03:23:34.619Z,824
2017-06-06T03:24:28.598Z,836
2017-06-06T03:25:23.645Z,852
2017-06-06T03:26:23.715Z,888
2017-06-06T03:27:18.755Z,924
2017-06-06T03:28:18.729Z,968
2017-06-06T03:29:12.832Z,1016
2017-06-06T03:30:12.839Z,1064
2017-06-06T03:31:12.948Z,1112
2017-06-06T03:32:07.388Z,1156
2017-06-06T03:33:06.945Z,1208
2017-06-06T03:34:07.530Z,1268
2017-06-06T03:34:56.030Z,1316
2017-06-06T03:35:50.520Z,1368
2017-06-06T03:36:50.452Z,1424
2017-06-06T03:37:50.456Z,1476
2017-06-06T03:38:45.766Z,1528
2017-06-06T03:39:45.579Z,1588
2017-06-06T03:40:45.587Z,1644
2017-06-06T03:41:45.767Z,1692
2017-06-06T03:42:45.614Z,1736
2017-06-06T03:43:45.961Z,1788
2017-06-06T03:44:40.881Z,1832
2017-06-06T03:45:34.946Z,1876
2017-06-06T03:46:35.961Z,1924
2017-06-06T03:47:36.964Z,1972
2017-06-06T03:48:31.043Z,2012
2017-06-06T03:49:30.901Z,2052
2017-06-06T03:50:25.662Z,2084
2017-06-06T03:51:21.151Z,2108
2017-06-06T03:52:14.823Z,2136
2017-06-06T03:53:15.026Z,2168
2017-06-06T03:54:09.800Z,2192
2017-06-06T03:55:05.366Z,2220
2017-06-06T03:55:59.369Z,2264
2017-06-06T03:56:59.102Z,2316
2017-06-06T03:57:53.123Z,2384
2017-06-06T03:58:54.689Z,2484
2017-06-06T03:59:48.048Z,2592
2017-06-06T04:00:48.352Z,2756
2017-06-06T04:01:42.315Z,2928
2017-06-06T04:02:42.149Z,3192
2017-06-06T04:03:37.373Z,3404
2017-06-06T04:04:31.567Z,3724
2017-06-06T04:05:31.661Z,4092
2017-06-06T04:06:26.302Z,4472
2017-06-06T04:07:21.516Z,4832
2017-06-06T04:08:15.605Z,5264
2017-06-06T04:09:10.440Z,5664
2017-06-06T04:10:11.727Z,6092
2017-06-06T04:11:11.769Z,6460
2017-06-06T04:12:11.981Z,6728
2017-06-06T04:12:59.554Z,6880
2017-06-06T04:13:59.542Z,7016
2017-06-06T04:14:53.634Z,7068
2017-06-06T04:15:48.679Z,7056
2017-06-06T04:16:48.750Z,7032
2017-06-06T04:17:43.878Z,6980
2017-06-06T04:18:37.969Z,6936
2017-06-06T04:19:32.381Z,6888
2017-06-06T04:20:26.067Z,6864
2017-06-06T04:21:26.172Z,6864
2017-06-06T04:22:26.136Z,6912
2017-06-06T04:23:20.395Z,6964
2017-06-06T04:24:20.090Z,7044
2017-06-06T04:25:09.160Z,7136
2017-06-06T04:26:09.137Z,7260
2017-06-06T04:27:04.604Z,7428
2017-06-06T04:28:04.229Z,7600
2017-06-06T04:28:59.180Z,7744
2017-06-06T04:29:59.257Z,7928
2017-06-06T04:30:59.326Z,8092
2017-06-06T04:31:59.353Z,8196
2017-06-06T04:32:53.394Z,8388
2017-06-06T04:33:55.052Z,8564
2017-06-06T04:34:55.453Z,8756
2017-06-06T04:35:55.510Z,8964
2017-06-06T04:36:50.530Z,9304
2017-06-06T04:37:44.712Z,9772
2017-06-06T04:38:44.630Z,10852
2017-06-06T04:39:44.919Z,10988
2017-06-06T04:40:44.825Z,11048
2017-06-06T04:41:44.751Z,10808
2017-06-06T04:42:44.820Z,10812
2017-06-06T04:43:44.795Z,10496
2017-06-06T04:44:39.879Z,9552
2017-06-06T04:45:39.925Z,9316
2017-06-06T04:46:39.977Z,9284
2017-06-06T04:47:39.979Z,9400
2017-06-06T04:48:40.054Z,9776
2017-06-06T04:49:34.101Z,9456
2017-06-06T04:50:34.068Z,9700
2017-06-06T04:51:29.111Z,9660
2017-06-06T04:52:24.198Z,9488
2017-06-06T04:53:18.235Z,9304
2017-06-06T04:54:18.327Z,9336
2017-06-06T04:55:13.291Z,9912
2017-06-06T04:56:08.330Z,9764
2017-06-06T04:57:08.349Z,9788
2017-06-06T04:58:03.437Z,10320
2017-06-06T04:58:58.511Z,10632
2017-06-06T04:59:52.494Z,10836
2017-06-06T05:00:52.891Z,11084
2017-06-06T05:01:47.761Z,11380
2017-06-06T05:02:42.657Z,11656
2017-06-06T05:03:43.124Z,11724
2017-06-06T05:04:37.742Z,11736
2017-06-06T05:05:32.746Z,11488
2017-06-06T05:06:26.813Z,11692
2017-06-06T05:07:26.897Z,12636
2017-06-06T05:08:21.845Z,13740
2017-06-06T05:09:16.912Z,14624
2017-06-06T05:10:16.941Z,12828
2017-06-06T05:11:11.010Z,12496
2017-06-06T05:12:12.131Z,11456
2017-06-06T05:13:13.050Z,11596
2017-06-06T05:14:13.148Z,11128
2017-06-06T05:15:07.154Z,11200
2017-06-06T05:16:07.241Z,10876
2017-06-06T05:17:01.507Z,11116
2017-06-06T05:18:01.353Z,11844
2017-06-06T05:18:56.264Z,12680
2017-06-06T05:19:51.395Z,14020
2017-06-06T05:20:51.445Z,15552
2017-06-06T05:21:45.491Z,15520
2017-06-06T05:22:45.498Z,15224
2017-06-06T05:23:45.538Z,16704
2017-06-06T05:24:40.603Z,17792
2017-06-06T05:25:35.654Z,17792
2017-06-06T05:26:35.663Z,17248
2017-06-06T05:27:30.711Z,17568
2017-06-06T05:28:25.861Z,19712
2017-06-06T05:29:19.871Z,22208
2017-06-06T05:30:14.065Z,21440
2017-06-06T05:31:09.090Z,24640
2017-06-06T05:32:08.938Z,25440
2017-06-06T05:33:03.176Z,24096
2017-06-06T05:33:57.058Z,23136
2017-06-06T05:34:58.040Z,23040
2017-06-06T05:35:52.090Z,23072
2017-06-06T05:36:47.467Z,25440
2017-06-06T05:37:48.175Z,28320
2017-06-06T05:38:49.810Z,24192
2017-06-06T05:39:49.275Z,20032
2017-06-06T05:40:44.306Z,18752
2017-06-06T05:41:44.819Z,18624
2017-06-06T05:42:33.887Z,19520
2017-06-06T05:43:22.456Z,20768
2017-06-06T05:44:16.967Z,23296
2017-06-06T05:45:11.732Z,23488
2017-06-06T05:46:11.626Z,27616
2017-06-06T05:47:05.677Z,26400
2017-06-06T05:48:06.669Z,26176
2017-06-06T05:48:55.735Z,26944
2017-06-06T05:49:49.954Z,29824
2017-06-06T05:50:49.819Z,32320
2017-06-06T05:51:49.892Z,33568
2017-06-06T05:52:49.930Z,36704
2017-06-06T05:53:50.483Z,34624
2017-06-06T05:54:45.474Z,25152
2017-06-06T05:55:40.241Z,28448
2017-06-06T05:56:40.304Z,27776
2017-06-06T05:57:29.135Z,28896
2017-06-06T05:58:23.716Z,28960
2017-06-06T05:59:24.568Z,24640
2017-06-06T06:00:13.732Z,25344
2017-06-06T06:01:08.462Z,23584
2017-06-06T06:02:02.931Z,26624
2017-06-06T06:02:57.938Z,33504
2017-06-06T06:03:58.467Z,33664
2017-06-06T06:04:52.559Z,34112
2017-06-06T06:05:46.561Z,31680
2017-06-06T06:06:46.766Z,28032
2017-06-06T06:07:41.755Z,26720
2017-06-06T06:08:36.770Z,26080
2017-06-06T06:09:31.875Z,24640
2017-06-06T06:10:25.829Z,23232
2017-06-06T06:11:20.009Z,24736
2017-06-06T06:12:14.130Z,25344
2017-06-06T06:13:14.166Z,24096
2017-06-06T06:14:02.135Z,22784
2017-06-06T06:14:57.283Z,22624
2017-06-06T06:15:52.354Z,23712
2017-06-06T06:16:46.183Z,25344
2017-06-06T06:17:46.567Z,27264
2017-06-06T06:18:35.338Z,27008
2017-06-06T06:19:24.741Z,26624
2017-06-06T06:20:19.733Z,29664
2017-06-06T06:21:19.839Z,26624
2017-06-06T06:22:13.986Z,25152
2017-06-06T06:23:08.094Z,24832
2017-06-06T06:24:07.568Z,24736
2017-06-06T06:25:01.835Z,24832
2017-06-06T06:26:02.044Z,25216
2017-06-06T06:26:50.719Z,25472
2017-06-06T06:27:44.865Z,27232
2017-06-06T06:28:45.002Z,54048
2017-06-06T06:29:38.854Z,47648
2017-06-06T06:30:39.111Z,55424
2017-06-06T06:31:33.121Z,56480
2017-06-06T06:32:33.249Z,59008
2017-06-06T06:33:28.045Z,63808
2017-06-06T06:34:16.652Z,66816
2017-06-06T06:35:17.351Z,50592
2017-06-06T06:36:06.160Z,56896
2017-06-06T06:36:55.579Z,56896
2017-06-06T06:37:50.731Z,59904
2017-06-06T06:38:44.840Z,55456
2017-06-06T06:39:39.966Z,53280
2017-06-06T06:40:34.852Z,52064
2017-06-06T06:41:35.031Z,51744
2017-06-06T06:42:30.046Z,51232
2017-06-06T06:43:25.178Z,48864
2017-06-06T06:44:26.025Z,50432
2017-06-06T06:45:26.259Z,56096
2017-06-06T06:46:15.312Z,39328
2017-06-06T06:47:09.278Z,26752
2017-06-06T06:48:09.490Z,33472
2017-06-06T06:49:04.444Z,36032
2017-06-06T06:49:59.198Z,25920
2017-06-06T06:51:05.437Z,30304
2017-06-06T06:52:00.408Z,26528
2017-06-06T06:52:48.455Z,20640
2017-06-06T06:53:49.572Z,20256
2017-06-06T06:54:44.586Z,20032
2017-06-06T06:55:44.346Z,19808
2017-06-06T06:56:44.453Z,19648
2017-06-06T06:57:38.452Z,19392
2017-06-06T06:58:38.506Z,19296
2017-06-06T06:59:34.036Z,19296
2017-06-06T07:00:28.613Z,19456
2017-06-06T07:01:22.841Z,20000
2017-06-06T07:02:17.765Z,20320
2017-06-06T07:03:17.785Z,20960
2017-06-06T07:04:12.812Z,21888
2017-06-06T07:05:12.836Z,23168
2017-06-06T07:06:07.908Z,24320
2017-06-06T07:07:02.933Z,25568
2017-06-06T07:07:51.029Z,25280
2017-06-06T07:08:51.644Z,25056
2017-06-06T07:09:45.058Z,25120
2017-06-06T07:10:40.517Z,25792
2017-06-06T07:11:35.233Z,27136
2017-06-06T07:12:35.617Z,29760
2017-06-06T07:13:35.649Z,32928
2017-06-06T07:14:30.406Z,31680
2017-06-06T07:15:25.421Z,28800
2017-06-06T07:16:20.458Z,33568
2017-06-06T07:17:20.469Z,35296
2017-06-06T07:18:15.805Z,31808
2017-06-06T07:19:10.214Z,30784
2017-06-06T07:20:05.160Z,29600
2017-06-06T07:21:05.107Z,25248
2017-06-06T07:21:59.160Z,24224
2017-06-06T07:22:47.824Z,22752
2017-06-06T07:23:41.870Z,21312
2017-06-06T07:24:37.199Z,20064
2017-06-06T07:25:25.971Z,19200
2017-06-06T07:26:21.023Z,18560
2017-06-06T07:27:21.056Z,17984
2017-06-06T07:28:16.130Z,17888
2017-06-06T07:29:04.137Z,17984
2017-06-06T07:30:04.318Z,18496
2017-06-06T07:30:58.811Z,18912
2017-06-06T07:31:59.341Z,19264
2017-06-06T07:32:53.576Z,19424
2017-06-06T07:33:42.456Z,19520
2017-06-06T07:34:36.812Z,20192
2017-06-06T07:35:31.533Z,20992
2017-06-06T07:36:26.530Z,22144
2017-06-06T07:37:15.645Z,23328
2017-06-06T07:38:09.643Z,24640
2017-06-06T07:39:04.719Z,25184
2017-06-06T07:39:58.751Z,25504
2017-06-06T07:40:53.812Z,25248
2017-06-06T07:41:41.876Z,25312
2017-06-06T07:42:42.926Z,25600
2017-06-06T07:43:42.927Z,26080
2017-06-06T07:44:43.182Z,26688
2017-06-06T07:45:32.055Z,27232
2017-06-06T07:46:21.186Z,27904
2017-06-06T07:47:15.124Z,28672
2017-06-06T07:48:09.240Z,29568
2017-06-06T07:49:03.253Z,30592
2017-06-06T07:50:03.720Z,30784
2017-06-06T07:50:58.866Z,29664
2017-06-06T07:51:53.417Z,28640
2017-06-06T07:52:42.418Z,27232
2017-06-06T07:53:31.532Z,26208
2017-06-06T07:54:32.020Z,24768
2017-06-06T07:55:21.112Z,23744
2017-06-06T07:56:16.170Z,23072
2017-06-06T07:57:04.757Z,23040
2017-06-06T07:58:04.727Z,23008
2017-06-06T07:59:00.219Z,23264
2017-06-06T07:59:53.830Z,23616
2017-06-06T08:00:54.129Z,23584
2017-06-06T08:01:48.957Z,23488
2017-06-06T08:02:44.479Z,23392
2017-06-06T08:03:44.062Z,22944
2017-06-06T08:04:39.256Z,23040
2017-06-06T08:05:34.141Z,23904
2017-06-06T08:06:28.471Z,25152
2017-06-06T08:07:28.263Z,26368
2017-06-06T08:08:22.536Z,27360
2017-06-06T08:09:11.360Z,27328
2017-06-06T08:10:11.413Z,27424
2017-06-06T08:11:06.445Z,28640
2017-06-06T08:12:01.828Z,29632
2017-06-06T08:13:01.546Z,30496
2017-06-06T08:13:56.410Z,30816
2017-06-06T08:14:56.091Z,31712
2017-06-06T08:15:56.130Z,32320
2017-06-06T08:16:56.182Z,33280
2017-06-06T08:17:51.069Z,34048
2017-06-06T08:18:44.808Z,33120
2017-06-06T08:19:45.746Z,32960
2017-06-06T08:20:40.300Z,31456
2017-06-06T08:21:29.341Z,29088
2017-06-06T08:22:24.446Z,27680
2017-06-06T08:23:19.455Z,28128
2017-06-06T08:24:13.563Z,28448
2017-06-06T08:25:13.357Z,28192
2017-06-06T08:26:07.636Z,27008
2017-06-06T08:27:08.693Z,33632
2017-06-06T08:28:02.660Z,36928
2017-06-06T08:28:51.824Z,34368
2017-06-06T08:29:45.805Z,32864
2017-06-06T08:30:39.862Z,30272
2017-06-06T08:31:34.931Z,29472
2017-06-06T08:32:34.981Z,26656
2017-06-06T08:33:24.089Z,23072
2017-06-06T08:34:18.969Z,12964
2017-06-06T08:35:13.064Z,10540
2017-06-06T08:36:08.109Z,17440
2017-06-06T08:37:08.258Z,15220
2017-06-06T08:37:57.214Z,13776
2017-06-06T08:38:57.456Z,11992
2017-06-06T08:39:46.403Z,11332
2017-06-06T08:40:41.513Z,11492
2017-06-06T08:41:35.520Z,11128
2017-06-06T08:42:35.556Z,10304
2017-06-06T08:43:29.470Z,10084
2017-06-06T08:44:30.510Z,11152
2017-06-06T08:45:24.625Z,12128
2017-06-06T08:46:19.756Z,12656
2017-06-06T08:47:13.825Z,12584
2017-06-06T08:48:08.857Z,12700
2017-06-06T08:48:58.027Z,11812
2017-06-06T08:49:52.912Z,10480
2017-06-06T08:50:46.829Z,10696
2017-06-06T08:51:47.621Z,13140
2017-06-06T08:52:43.024Z,14368
2017-06-06T08:53:36.717Z,15416
2017-06-06T08:54:37.191Z,15748
2017-06-06T08:55:32.243Z,15280
2017-06-06T08:56:25.959Z,15296
2017-06-06T08:57:20.966Z,13744
2017-06-06T08:58:14.975Z,12432
2017-06-06T08:59:10.008Z,12056
2017-06-06T09:00:04.052Z,11888
2017-06-06T09:00:53.161Z,12836
2017-06-06T09:01:48.259Z,13236
2017-06-06T09:02:37.225Z,11980
2017-06-06T09:03:32.286Z,10804
2017-06-06T09:04:26.551Z,9960
2017-06-06T09:05:21.338Z,11124
2017-06-06T09:06:10.431Z,14800
2017-06-06T09:07:05.466Z,18880
2017-06-06T09:08:00.474Z,19840
2017-06-06T09:08:55.048Z,19072
2017-06-06T09:09:54.637Z,18592
2017-06-06T09:10:43.664Z,18592
2017-06-06T09:11:43.673Z,18592
2017-06-06T09:12:38.744Z,16608
2017-06-06T09:13:33.731Z,15476
2017-06-06T09:14:23.082Z,14688
2017-06-06T09:15:16.867Z,13708
2017-06-06T09:16:11.917Z,12844
2017-06-06T09:17:06.934Z,12300
2017-06-06T09:17:55.977Z,11592
2017-06-06T09:18:50.226Z,10940
2017-06-06T09:19:45.295Z,10428
2017-06-06T09:20:45.140Z,10036
2017-06-06T09:21:39.159Z,10444
2017-06-06T09:22:33.716Z,11268
2017-06-06T09:23:27.241Z,12364
2017-06-06T09:24:22.336Z,13792
2017-06-06T09:25:23.354Z,14748
2017-06-06T09:26:23.446Z,15128
2017-06-06T09:27:23.419Z,15028
2017-06-06T09:28:17.465Z,15288
2017-06-06T09:29:17.845Z,15468
2017-06-06T09:30:12.560Z,15388
2017-06-06T09:31:06.671Z,14940
2017-06-06T09:32:01.715Z,14436
2017-06-06T09:32:56.689Z,14984
2017-06-06T09:33:51.827Z,17568
2017-06-06T09:34:45.853Z,21056
2017-06-06T09:35:40.836Z,24672
2017-06-06T09:36:40.911Z,27200
2017-06-06T09:37:34.945Z,28800
2017-06-06T09:38:22.934Z,30592
2017-06-06T09:39:17.010Z,32288
2017-06-06T09:40:11.065Z,33024
2017-06-06T09:41:11.132Z,32192
2017-06-06T09:42:05.485Z,29792
2017-06-06T09:43:06.233Z,25952
2017-06-06T09:44:00.530Z,23936
2017-06-06T09:44:54.295Z,23136
2017-06-06T09:45:42.376Z,22880
2017-06-06T09:46:42.408Z,23520
2017-06-06T09:47:37.456Z,25184
2017-06-06T09:48:37.446Z,26688
2017-06-06T09:49:31.509Z,26048
2017-06-06T09:50:32.068Z,25408
2017-06-06T09:51:27.140Z,23648
2017-06-06T09:52:20.663Z,22784
2017-06-06T09:53:09.738Z,23200
2017-06-06T09:53:59.304Z,22560
2017-06-06T09:54:59.833Z,22048
2017-06-06T09:55:53.841Z,21792
2017-06-06T09:56:53.902Z,22272
2017-06-06T09:57:42.968Z,23520
2017-06-06T09:58:31.969Z,24032
2017-06-06T09:59:26.034Z,23520
2017-06-06T10:00:26.078Z,22784
2017-06-06T10:01:20.152Z,22336
2017-06-06T10:02:09.159Z,23264
2017-06-06T10:03:04.236Z,26336
2017-06-06T10:04:04.662Z,28000
2017-06-06T10:04:59.509Z,27424
2017-06-06T10:05:48.840Z,24800
2017-06-06T10:06:48.404Z,23744
2017-06-06T10:07:42.456Z,23200
2017-06-06T10:08:37.589Z,21696
2017-06-06T10:09:31.586Z,21248
2017-06-06T10:10:27.095Z,21856
2017-06-06T10:11:20.649Z,22976
2017-06-06T10:12:20.694Z,23424
2017-06-06T10:13:15.735Z,21152
2017-06-06T10:14:03.807Z,19104
2017-06-06T10:14:57.877Z,14848
2017-06-06T10:15:57.883Z,10668
2017-06-06T10:16:57.938Z,9968
2017-06-06T10:17:52.933Z,11648
2017-06-06T10:18:53.400Z,13652
2017-06-06T10:19:47.027Z,16928
2017-06-06T10:20:41.248Z,17536
2017-06-06T10:21:36.295Z,16172
2017-06-06T10:22:36.484Z,13704
2017-06-06T10:23:30.245Z,14872
2017-06-06T10:24:31.530Z,21600
2017-06-06T10:25:31.328Z,28320
2017-06-06T10:26:25.345Z,34400
2017-06-06T10:27:25.892Z,38144
2017-06-06T10:28:14.510Z,36096
2017-06-06T10:29:08.529Z,32224
2017-06-06T10:30:09.573Z,30144
2017-06-06T10:31:03.562Z,31840
2017-06-06T10:31:57.701Z,30240
2017-06-06T10:32:57.651Z,23488
2017-06-06T10:33:52.748Z,22304
2017-06-06T10:34:53.191Z,26816
2017-06-06T10:35:53.787Z,33472
2017-06-06T10:36:47.881Z,30144
2017-06-06T10:37:47.933Z,24992
2017-06-06T10:38:41.935Z,25248
2017-06-06T10:39:41.980Z,25408
2017-06-06T10:40:36.285Z,27872
2017-06-06T10:41:30.061Z,32416
2017-06-06T10:42:25.315Z,39136
2017-06-06T10:43:19.207Z,36064
2017-06-06T10:44:14.244Z,33504
2017-06-06T10:45:14.750Z,28512
2017-06-06T10:46:09.322Z,28608
2017-06-06T10:47:04.315Z,37024
2017-06-06T10:47:58.432Z,35328
2017-06-06T10:48:53.424Z,32384
2017-06-06T10:49:47.809Z,33120
2017-06-06T10:50:47.550Z,26496
2017-06-06T10:51:42.565Z,19296
2017-06-06T10:52:37.123Z,20896
2017-06-06T10:53:31.653Z,24128
2017-06-06T10:54:26.737Z,23552
2017-06-06T10:55:20.698Z,17600
2017-06-06T10:56:09.849Z,13348
2017-06-06T10:57:03.835Z,12956
2017-06-06T10:57:57.934Z,12912
2017-06-06T10:58:46.950Z,15200
2017-06-06T10:59:35.032Z,14312
2017-06-06T11:00:29.014Z,15384
2017-06-06T11:01:23.052Z,17856
2017-06-06T11:02:23.151Z,20384
2017-06-06T11:03:17.210Z,20032
2017-06-06T11:04:18.267Z,19680
2017-06-06T11:05:12.310Z,20384
2017-06-06T11:06:01.316Z,20256
2017-06-06T11:06:56.339Z,21440
2017-06-06T11:07:44.435Z,23360
2017-06-06T11:08:44.452Z,27168
2017-06-06T11:09:39.495Z,31360
2017-06-06T11:10:33.572Z,38624
2017-06-06T11:11:27.621Z,41920
2017-06-06T11:12:17.156Z,42112
2017-06-06T11:13:16.662Z,42080
2017-06-06T11:14:10.734Z,38720
2017-06-06T11:14:59.759Z,36128
2017-06-06T11:15:59.878Z,33696
2017-06-06T11:16:54.831Z,33184
2017-06-06T11:17:43.924Z,36416
2017-06-06T11:18:37.928Z,43008
2017-06-06T11:19:37.998Z,51264
2017-06-06T11:20:32.296Z,54720
2017-06-06T11:21:32.090Z,49568
2017-06-06T11:22:26.162Z,41664
2017-06-06T11:23:20.238Z,36448
2017-06-06T11:24:20.213Z,35200
2017-06-06T11:25:15.635Z,36000
2017-06-06T11:26:15.465Z,35712
2017-06-06T11:27:10.344Z,39680
2017-06-06T11:28:04.418Z,42880
2017-06-06T11:29:00.089Z,39424
2017-06-06T11:29:53.542Z,36576
2017-06-06T11:30:47.540Z,32320
2017-06-06T11:31:37.082Z,31808
2017-06-06T11:32:31.679Z,27488
2017-06-06T11:33:20.711Z,25376
2017-06-06T11:34:14.816Z,23744
2017-06-06T11:35:14.864Z,19104
2017-06-06T11:36:10.614Z,17056
2017-06-06T11:37:04.893Z,14400
2017-06-06T11:37:52.956Z,13584
2017-06-06T11:38:54.171Z,11608
2017-06-06T11:39:43.027Z,11444
2017-06-06T11:40:38.033Z,11292
2017-06-06T11:41:32.152Z,14220
2017-06-06T11:42:27.209Z,16256
2017-06-06T11:43:28.231Z,18752
2017-06-06T11:44:22.269Z,21600
2017-06-06T11:45:10.347Z,23872
2017-06-06T11:46:04.381Z,25952
2017-06-06T11:46:58.457Z,26080
2017-06-06T11:47:58.441Z,26816
2017-06-06T11:48:53.481Z,26944
2017-06-06T11:49:48.537Z,26208
2017-06-06T11:50:42.583Z,23744
2017-06-06T11:51:37.647Z,21440
2017-06-06T11:52:37.668Z,23520
2017-06-06T11:53:31.766Z,29760
2017-06-06T11:54:31.848Z,32320
2017-06-06T11:55:25.826Z,29568
2017-06-06T11:56:20.854Z,26400
2017-06-06T11:57:14.927Z,24544
2017-06-06T11:58:09.052Z,25888
2017-06-06T11:59:03.944Z,28544
2017-06-06T12:00:04.040Z,28064
2017-06-06T12:00:59.069Z,27360
2017-06-06T12:02:00.137Z,28096
2017-06-06T12:02:54.282Z,28512
2017-06-06T12:03:49.370Z,31104
2017-06-06T12:04:38.240Z,31328
2017-06-06T12:05:33.355Z,27968
2017-06-06T12:06:28.470Z,24512
2017-06-06T12:07:29.417Z,23200
2017-06-06T12:08:23.441Z,24416
2017-06-06T12:09:11.538Z,27136
2017-06-06T12:10:12.633Z,34944
2017-06-06T12:11:01.699Z,42816
2017-06-06T12:11:56.721Z,42048
2017-06-06T12:12:51.641Z,38080
2017-06-06T12:13:46.716Z,35840
2017-06-06T12:14:41.132Z,39648
2017-06-06T12:15:34.829Z,49184
2017-06-06T12:16:28.875Z,48992
2017-06-06T12:17:29.937Z,44480
2017-06-06T12:18:24.012Z,41504
2017-06-06T12:19:12.514Z,39744
2017-06-06T12:20:12.071Z,39744
2017-06-06T12:21:00.123Z,41216
2017-06-06T12:22:00.206Z,43808
2017-06-06T12:22:55.212Z,45600